sensor_id;sensor_type;location;lat;lon;timestamp;temperature;humidity
14357;DHT22;7262;48.764;9.166;2022-08-01T00:01:37;20.30;99.90
14357;DHT22;7262;48.764;9.166;2022-08-01T00:04:04;20.30;99.90
14357;DHT22;7262;48.764;9.166;2022-08-01T00:06:31;20.20;99.90
14357;DHT22;7262;48.764;9.166;2022-08-01T00:09:01;20.20;99.90
14357;DHT22;7262;48.764;9.166;2022-08-01T00:11:28;20.20;99.90
14357;DHT22;7262;48.764;9.166;2022-08-01T00:13:54;20.20;99.90
14357;DHT22;7262;48.764;9.166;2022-08-01T00:16:21;20.10;99.90
14357;DHT22;7262;48.764;9.166;2022-08-01T00:18:50;20.10;99.90
14357;DHT22;7262;48.764;9.166;2022-08-01T00:21:17;20.10;99.90
14357;DHT22;7262;48.764;9.166;2022-08-01T00:23:44;20.00;99.90
14357;DHT22;7262;48.764;9.166;2022-08-01T00:26:11;20.00;99.90
14357;DHT22;7262;48.764;9.166;2022-08-01T00:28:38;20.00;99.90
14357;DHT22;7262;48.764;9.166;2022-08-01T00:31:05;20.00;99.90
14357;DHT22;7262;48.764;9.166;2022-08-01T00:33:32;20.00;99.90
14357;DHT22;7262;48.764;9.166;2022-08-01T00:36:00;19.90;99.90
14357;DHT22;7262;48.764;9.166;2022-08-01T00:38:27;19.90;99.90
14357;DHT22;7262;48.764;9.166;2022-08-01T00:40:55;19.90;99.90
14357;DHT22;7262;48.764;9.166;2022-08-01T00:43:22;19.80;99.90
14357;DHT22;7262;48.764;9.166;2022-08-01T00:45:48;19.80;99.90
14357;DHT22;7262;48.764;9.166;2022-08-01T00:48:15;19.70;99.90
14357;DHT22;7262;48.764;9.166;2022-08-01T00:50:42;19.70;99.90
14357;DHT22;7262;48.764;9.166;2022-08-01T00:53:11;19.70;99.90
14357;DHT22;7262;48.764;9.166;2022-08-01T00:55:38;19.70;99.90
14357;DHT22;7262;48.764;9.166;2022-08-01T00:58:04;19.60;99.90
14357;DHT22;7262;48.764;9.166;2022-08-01T01:00:32;19.60;99.90
14357;DHT22;7262;48.764;9.166;2022-08-01T01:02:59;19.50;99.90
14357;DHT22;7262;48.764;9.166;2022-08-01T01:05:25;19.50;99.90
14357;DHT22;7262;48.764;9.166;2022-08-01T01:07:53;19.50;99.90
14357;DHT22;7262;48.764;9.166;2022-08-01T01:10:24;19.50;99.90
14357;DHT22;7262;48.764;9.166;2022-08-01T01:12:55;19.50;99.90
14357;DHT22;7262;48.764;9.166;2022-08-01T01:15:26;19.50;99.90
14357;DHT22;7262;48.764;9.166;2022-08-01T01:17:55;19.50;99.90
14357;DHT22;7262;48.764;9.166;2022-08-01T01:20:24;19.50;99.90
14357;DHT22;7262;48.764;9.166;2022-08-01T01:22:59;19.50;99.90
14357;DHT22;7262;48.764;9.166;2022-08-01T01:28:15;19.50;99.90
14357;DHT22;7262;48.764;9.166;2022-08-01T01:30:44;19.50;99.90
14357;DHT22;7262;48.764;9.166;2022-08-01T01:33:12;19.50;99.90
14357;DHT22;7262;48.764;9.166;2022-08-01T01:35:45;19.50;99.90
14357;DHT22;7262;48.764;9.166;2022-08-01T01:38:15;19.40;99.90
14357;DHT22;7262;48.764;9.166;2022-08-01T01:40:42;19.40;99.90
14357;DHT22;7262;48.764;9.166;2022-08-01T01:43:10;19.40;99.90
14357;DHT22;7262;48.764;9.166;2022-08-01T01:45:37;19.40;99.90
14357;DHT22;7262;48.764;9.166;2022-08-01T01:48:06;19.40;99.90
14357;DHT22;7262;48.764;9.166;2022-08-01T01:50:36;19.40;99.90
14357;DHT22;7262;48.764;9.166;2022-08-01T01:53:03;19.40;99.90
14357;DHT22;7262;48.764;9.166;2022-08-01T01:55:31;19.40;99.90
14357;DHT22;7262;48.764;9.166;2022-08-01T01:57:59;19.40;99.90
14357;DHT22;7262;48.764;9.166;2022-08-01T02:00:26;19.40;99.90
14357;DHT22;7262;48.764;9.166;2022-08-01T02:02:54;19.40;99.90
14357;DHT22;7262;48.764;9.166;2022-08-01T02:05:24;19.40;99.90
14357;DHT22;7262;48.764;9.166;2022-08-01T02:07:53;19.40;99.90
14357;DHT22;7262;48.764;9.166;2022-08-01T02:10:20;19.40;99.90
14357;DHT22;7262;48.764;9.166;2022-08-01T02:12:49;19.40;99.90
14357;DHT22;7262;48.764;9.166;2022-08-01T02:15:17;19.30;99.90
14357;DHT22;7262;48.764;9.166;2022-08-01T02:17:46;19.30;99.90
14357;DHT22;7262;48.764;9.166;2022-08-01T02:20:13;19.30;99.90
14357;DHT22;7262;48.764;9.166;2022-08-01T02:22:44;19.30;99.90
14357;DHT22;7262;48.764;9.166;2022-08-01T02:25:15;19.30;99.90
14357;DHT22;7262;48.764;9.166;2022-08-01T02:27:45;19.30;99.90
14357;DHT22;7262;48.764;9.166;2022-08-01T02:30:15;19.20;99.90
14357;DHT22;7262;48.764;9.166;2022-08-01T02:32:43;19.20;99.90
14357;DHT22;7262;48.764;9.166;2022-08-01T02:35:11;19.20;99.90
14357;DHT22;7262;48.764;9.166;2022-08-01T02:37:39;19.20;99.90
14357;DHT22;7262;48.764;9.166;2022-08-01T02:40:09;19.20;99.90
14357;DHT22;7262;48.764;9.166;2022-08-01T02:42:36;19.20;99.90
14357;DHT22;7262;48.764;9.166;2022-08-01T02:45:04;19.20;99.90
14357;DHT22;7262;48.764;9.166;2022-08-01T02:47:33;19.20;99.90
14357;DHT22;7262;48.764;9.166;2022-08-01T02:50:02;19.20;99.90
14357;DHT22;7262;48.764;9.166;2022-08-01T02:52:29;19.10;99.90
14357;DHT22;7262;48.764;9.166;2022-08-01T02:54:57;19.10;99.90
14357;DHT22;7262;48.764;9.166;2022-08-01T02:57:26;19.10;99.90
14357;DHT22;7262;48.764;9.166;2022-08-01T02:59:54;19.00;99.90
14357;DHT22;7262;48.764;9.166;2022-08-01T03:02:22;19.00;99.90
14357;DHT22;7262;48.764;9.166;2022-08-01T03:04:49;19.00;99.90
14357;DHT22;7262;48.764;9.166;2022-08-01T03:07:16;19.00;99.90
14357;DHT22;7262;48.764;9.166;2022-08-01T03:09:45;18.90;99.90
14357;DHT22;7262;48.764;9.166;2022-08-01T03:12:13;18.90;99.90
14357;DHT22;7262;48.764;9.166;2022-08-01T03:14:42;18.90;99.90
14357;DHT22;7262;48.764;9.166;2022-08-01T03:17:09;18.80;99.90
14357;DHT22;7262;48.764;9.166;2022-08-01T03:19:36;18.80;99.90
14357;DHT22;7262;48.764;9.166;2022-08-01T03:22:05;18.80;99.90
14357;DHT22;7262;48.764;9.166;2022-08-01T03:24:32;18.80;99.90
14357;DHT22;7262;48.764;9.166;2022-08-01T03:27:00;18.80;99.90
14357;DHT22;7262;48.764;9.166;2022-08-01T03:29:27;18.80;99.90
14357;DHT22;7262;48.764;9.166;2022-08-01T03:31:57;18.80;99.90
14357;DHT22;7262;48.764;9.166;2022-08-01T03:34:24;18.80;99.90
14357;DHT22;7262;48.764;9.166;2022-08-01T03:36:53;18.80;99.90
14357;DHT22;7262;48.764;9.166;2022-08-01T03:39:22;18.80;99.90
14357;DHT22;7262;48.764;9.166;2022-08-01T03:41:51;18.80;99.90
14357;DHT22;7262;48.764;9.166;2022-08-01T03:44:22;18.60;99.90
14357;DHT22;7262;48.764;9.166;2022-08-01T03:46:51;18.70;99.90
14357;DHT22;7262;48.764;9.166;2022-08-01T03:49:22;18.70;99.90
14357;DHT22;7262;48.764;9.166;2022-08-01T03:51:50;18.70;99.90
14357;DHT22;7262;48.764;9.166;2022-08-01T03:54:17;18.70;99.90
14357;DHT22;7262;48.764;9.166;2022-08-01T03:56:46;18.70;99.90
14357;DHT22;7262;48.764;9.166;2022-08-01T03:59:15;18.70;99.90
14357;DHT22;7262;48.764;9.166;2022-08-01T04:01:43;18.70;99.90
14357;DHT22;7262;48.764;9.166;2022-08-01T04:04:09;18.70;99.90
14357;DHT22;7262;48.764;9.166;2022-08-01T04:06:39;18.80;99.90
14357;DHT22;7262;48.764;9.166;2022-08-01T04:09:06;18.70;99.90
14357;DHT22;7262;48.764;9.166;2022-08-01T04:11:33;18.80;99.90
14357;DHT22;7262;48.764;9.166;2022-08-01T04:14:00;18.80;99.90
14357;DHT22;7262;48.764;9.166;2022-08-01T04:16:27;18.80;99.90
14357;DHT22;7262;48.764;9.166;2022-08-01T04:18:54;18.90;99.90
14357;DHT22;7262;48.764;9.166;2022-08-01T04:21:22;18.90;99.90
14357;DHT22;7262;48.764;9.166;2022-08-01T04:23:50;19.00;99.90
14357;DHT22;7262;48.764;9.166;2022-08-01T04:26:19;19.00;99.90
14357;DHT22;7262;48.764;9.166;2022-08-01T04:28:46;19.10;99.90
14357;DHT22;7262;48.764;9.166;2022-08-01T04:31:15;19.10;99.90
14357;DHT22;7262;48.764;9.166;2022-08-01T04:33:43;19.20;99.90
14357;DHT22;7262;48.764;9.166;2022-08-01T04:36:12;19.30;99.90
14357;DHT22;7262;48.764;9.166;2022-08-01T04:38:40;19.30;99.90
14357;DHT22;7262;48.764;9.166;2022-08-01T04:41:11;19.30;99.90
14357;DHT22;7262;48.764;9.166;2022-08-01T04:43:38;19.40;99.90
14357;DHT22;7262;48.764;9.166;2022-08-01T04:46:05;19.40;99.90
14357;DHT22;7262;48.764;9.166;2022-08-01T04:48:33;19.50;99.90
14357;DHT22;7262;48.764;9.166;2022-08-01T04:51:00;19.60;99.90
14357;DHT22;7262;48.764;9.166;2022-08-01T04:53:27;19.60;99.90
14357;DHT22;7262;48.764;9.166;2022-08-01T04:55:55;19.60;99.90
14357;DHT22;7262;48.764;9.166;2022-08-01T04:58:23;19.70;99.90
14357;DHT22;7262;48.764;9.166;2022-08-01T05:00:50;19.80;99.90
14357;DHT22;7262;48.764;9.166;2022-08-01T05:03:17;19.90;99.90
14357;DHT22;7262;48.764;9.166;2022-08-01T05:05:43;20.00;99.90
14357;DHT22;7262;48.764;9.166;2022-08-01T05:08:10;20.10;99.90
14357;DHT22;7262;48.764;9.166;2022-08-01T05:10:37;20.20;99.90
14357;DHT22;7262;48.764;9.166;2022-08-01T05:13:05;20.30;99.90
14357;DHT22;7262;48.764;9.166;2022-08-01T05:15:34;20.50;99.90
14357;DHT22;7262;48.764;9.166;2022-08-01T05:18:02;20.70;99.90
14357;DHT22;7262;48.764;9.166;2022-08-01T05:20:28;20.90;99.90
14357;DHT22;7262;48.764;9.166;2022-08-01T05:22:55;21.30;99.90
14357;DHT22;7262;48.764;9.166;2022-08-01T05:25:23;22.50;99.90
14357;DHT22;7262;48.764;9.166;2022-08-01T05:27:50;23.20;99.90
14357;DHT22;7262;48.764;9.166;2022-08-01T05:30:17;24.00;99.90
14357;DHT22;7262;48.764;9.166;2022-08-01T05:32:45;24.90;99.90
14357;DHT22;7262;48.764;9.166;2022-08-01T05:35:12;25.60;99.90
14357;DHT22;7262;48.764;9.166;2022-08-01T05:37:39;26.40;99.90
14357;DHT22;7262;48.764;9.166;2022-08-01T05:40:06;26.60;99.90
14357;DHT22;7262;48.764;9.166;2022-08-01T05:42:38;27.00;99.90
14357;DHT22;7262;48.764;9.166;2022-08-01T05:45:05;27.30;99.90
14357;DHT22;7262;48.764;9.166;2022-08-01T05:47:32;28.20;99.90
14357;DHT22;7262;48.764;9.166;2022-08-01T05:50:02;28.60;99.90
14357;DHT22;7262;48.764;9.166;2022-08-01T05:52:28;28.60;99.90
14357;DHT22;7262;48.764;9.166;2022-08-01T05:54:56;28.60;99.90
14357;DHT22;7262;48.764;9.166;2022-08-01T05:57:23;28.70;99.90
14357;DHT22;7262;48.764;9.166;2022-08-01T05:59:53;29.10;99.90
14357;DHT22;7262;48.764;9.166;2022-08-01T06:02:20;29.30;99.90
14357;DHT22;7262;48.764;9.166;2022-08-01T06:04:46;29.70;99.90
14357;DHT22;7262;48.764;9.166;2022-08-01T06:07:15;29.50;99.90
14357;DHT22;7262;48.764;9.166;2022-08-01T06:09:42;29.90;99.90
14357;DHT22;7262;48.764;9.166;2022-08-01T06:12:13;29.70;99.90
14357;DHT22;7262;48.764;9.166;2022-08-01T06:14:40;29.90;99.90
14357;DHT22;7262;48.764;9.166;2022-08-01T06:17:06;29.90;99.90
14357;DHT22;7262;48.764;9.166;2022-08-01T06:19:33;30.00;99.90
14357;DHT22;7262;48.764;9.166;2022-08-01T06:22:00;30.30;99.90
14357;DHT22;7262;48.764;9.166;2022-08-01T06:24:28;30.50;99.90
14357;DHT22;7262;48.764;9.166;2022-08-01T06:26:55;30.80;99.90
14357;DHT22;7262;48.764;9.166;2022-08-01T06:29:23;31.50;99.90
14357;DHT22;7262;48.764;9.166;2022-08-01T06:31:50;31.50;99.90
14357;DHT22;7262;48.764;9.166;2022-08-01T06:34:17;31.70;99.90
14357;DHT22;7262;48.764;9.166;2022-08-01T06:36:44;30.90;99.90
14357;DHT22;7262;48.764;9.166;2022-08-01T06:39:11;30.40;99.90
14357;DHT22;7262;48.764;9.166;2022-08-01T06:41:40;30.80;99.90
14357;DHT22;7262;48.764;9.166;2022-08-01T06:44:07;30.90;99.90
14357;DHT22;7262;48.764;9.166;2022-08-01T06:46:35;31.80;99.90
14357;DHT22;7262;48.764;9.166;2022-08-01T06:49:01;32.60;99.90
14357;DHT22;7262;48.764;9.166;2022-08-01T06:51:28;33.20;99.90
14357;DHT22;7262;48.764;9.166;2022-08-01T06:53:55;32.70;99.90
14357;DHT22;7262;48.764;9.166;2022-08-01T06:56:22;32.90;99.90
14357;DHT22;7262;48.764;9.166;2022-08-01T06:58:50;33.00;99.90
14357;DHT22;7262;48.764;9.166;2022-08-01T07:01:17;33.20;99.90
14357;DHT22;7262;48.764;9.166;2022-08-01T07:03:44;32.60;99.90
14357;DHT22;7262;48.764;9.166;2022-08-01T07:06:10;32.00;99.90
14357;DHT22;7262;48.764;9.166;2022-08-01T07:08:37;32.40;99.90
14357;DHT22;7262;48.764;9.166;2022-08-01T07:11:04;32.40;99.90
14357;DHT22;7262;48.764;9.166;2022-08-01T07:13:31;32.70;99.90
14357;DHT22;7262;48.764;9.166;2022-08-01T07:16:00;33.10;99.90
14357;DHT22;7262;48.764;9.166;2022-08-01T07:18:27;33.70;99.90
14357;DHT22;7262;48.764;9.166;2022-08-01T07:20:53;32.30;99.90
14357;DHT22;7262;48.764;9.166;2022-08-01T07:23:20;30.90;99.90
14357;DHT22;7262;48.764;9.166;2022-08-01T07:25:48;30.10;99.90
14357;DHT22;7262;48.764;9.166;2022-08-01T07:28:16;29.40;99.90
14357;DHT22;7262;48.764;9.166;2022-08-01T07:30:42;29.30;99.90
14357;DHT22;7262;48.764;9.166;2022-08-01T07:33:11;29.30;99.90
14357;DHT22;7262;48.764;9.166;2022-08-01T07:35:38;29.20;99.90
14357;DHT22;7262;48.764;9.166;2022-08-01T07:38:05;30.00;99.90
14357;DHT22;7262;48.764;9.166;2022-08-01T07:40:31;30.40;99.90
14357;DHT22;7262;48.764;9.166;2022-08-01T07:42:58;31.00;99.90
14357;DHT22;7262;48.764;9.166;2022-08-01T07:45:25;31.90;99.90
14357;DHT22;7262;48.764;9.166;2022-08-01T07:47:53;32.70;99.90
14357;DHT22;7262;48.764;9.166;2022-08-01T07:50:21;33.50;99.90
14357;DHT22;7262;48.764;9.166;2022-08-01T07:52:48;33.70;99.90
14357;DHT22;7262;48.764;9.166;2022-08-01T07:55:16;32.80;99.90
14357;DHT22;7262;48.764;9.166;2022-08-01T07:57:54;32.10;99.90
14357;DHT22;7262;48.764;9.166;2022-08-01T08:00:21;30.50;99.90
14357;DHT22;7262;48.764;9.166;2022-08-01T08:02:48;29.20;99.90
14357;DHT22;7262;48.764;9.166;2022-08-01T08:05:15;29.50;99.90
14357;DHT22;7262;48.764;9.166;2022-08-01T08:07:43;30.90;99.90
14357;DHT22;7262;48.764;9.166;2022-08-01T08:10:10;32.30;99.90
14357;DHT22;7262;48.764;9.166;2022-08-01T08:12:37;32.90;99.90
14357;DHT22;7262;48.764;9.166;2022-08-01T08:15:05;33.10;99.90
14357;DHT22;7262;48.764;9.166;2022-08-01T08:17:34;32.80;99.90
14357;DHT22;7262;48.764;9.166;2022-08-01T08:20:01;32.80;99.90
14357;DHT22;7262;48.764;9.166;2022-08-01T08:22:28;31.80;99.90
14357;DHT22;7262;48.764;9.166;2022-08-01T08:24:57;30.60;99.90
14357;DHT22;7262;48.764;9.166;2022-08-01T08:27:23;29.40;99.90
14357;DHT22;7262;48.764;9.166;2022-08-01T08:29:50;28.60;99.90
14357;DHT22;7262;48.764;9.166;2022-08-01T08:32:19;30.30;99.90
14357;DHT22;7262;48.764;9.166;2022-08-01T08:34:46;31.10;99.90
14357;DHT22;7262;48.764;9.166;2022-08-01T08:37:13;31.60;99.90
14357;DHT22;7262;48.764;9.166;2022-08-01T08:39:40;32.00;99.90
14357;DHT22;7262;48.764;9.166;2022-08-01T08:42:12;31.40;99.90
14357;DHT22;7262;48.764;9.166;2022-08-01T08:44:40;31.00;99.90
14357;DHT22;7262;48.764;9.166;2022-08-01T08:47:07;30.60;99.90
14357;DHT22;7262;48.764;9.166;2022-08-01T08:49:34;29.90;99.90
14357;DHT22;7262;48.764;9.166;2022-08-01T08:52:02;29.70;99.90
14357;DHT22;7262;48.764;9.166;2022-08-01T08:54:29;29.40;99.90
14357;DHT22;7262;48.764;9.166;2022-08-01T08:57:00;29.80;99.90
14357;DHT22;7262;48.764;9.166;2022-08-01T08:59:29;30.40;99.90
14357;DHT22;7262;48.764;9.166;2022-08-01T09:01:55;30.40;99.90
14357;DHT22;7262;48.764;9.166;2022-08-01T09:04:23;29.70;99.90
14357;DHT22;7262;48.764;9.166;2022-08-01T09:06:50;30.00;99.90
14357;DHT22;7262;48.764;9.166;2022-08-01T09:09:17;30.80;99.90
14357;DHT22;7262;48.764;9.166;2022-08-01T09:11:43;31.30;99.90
14357;DHT22;7262;48.764;9.166;2022-08-01T09:14:11;31.00;99.90
14357;DHT22;7262;48.764;9.166;2022-08-01T09:16:41;30.40;99.90
14357;DHT22;7262;48.764;9.166;2022-08-01T09:19:12;30.40;99.90
14357;DHT22;7262;48.764;9.166;2022-08-01T09:21:39;29.90;99.90
14357;DHT22;7262;48.764;9.166;2022-08-01T09:24:13;29.20;99.90
14357;DHT22;7262;48.764;9.166;2022-08-01T09:26:40;28.90;99.90
14357;DHT22;7262;48.764;9.166;2022-08-01T09:29:08;28.70;99.90
14357;DHT22;7262;48.764;9.166;2022-08-01T09:31:44;29.10;99.90
14357;DHT22;7262;48.764;9.166;2022-08-01T09:34:12;28.90;99.90
14357;DHT22;7262;48.764;9.166;2022-08-01T09:36:46;29.00;99.90
14357;DHT22;7262;48.764;9.166;2022-08-01T09:39:17;29.40;99.90
14357;DHT22;7262;48.764;9.166;2022-08-01T09:41:45;29.50;99.90
14357;DHT22;7262;48.764;9.166;2022-08-01T09:44:12;30.30;99.90
14357;DHT22;7262;48.764;9.166;2022-08-01T09:46:49;31.20;99.90
14357;DHT22;7262;48.764;9.166;2022-08-01T09:51:45;32.20;99.90
14357;DHT22;7262;48.764;9.166;2022-08-01T09:54:12;33.10;99.90
14357;DHT22;7262;48.764;9.166;2022-08-01T09:56:53;32.40;99.90
14357;DHT22;7262;48.764;9.166;2022-08-01T09:59:20;30.90;99.90
14357;DHT22;7262;48.764;9.166;2022-08-01T10:01:48;29.90;99.90
14357;DHT22;7262;48.764;9.166;2022-08-01T10:04:17;29.30;99.90
14357;DHT22;7262;48.764;9.166;2022-08-01T10:06:45;28.90;99.90
14357;DHT22;7262;48.764;9.166;2022-08-01T10:09:15;29.10;99.90
14357;DHT22;7262;48.764;9.166;2022-08-01T10:11:52;29.40;99.90
14357;DHT22;7262;48.764;9.166;2022-08-01T10:14:21;29.00;99.90
14357;DHT22;7262;48.764;9.166;2022-08-01T10:16:48;28.70;99.90
14357;DHT22;7262;48.764;9.166;2022-08-01T10:19:17;28.70;99.90
14357;DHT22;7262;48.764;9.166;2022-08-01T10:21:45;29.50;99.90
14357;DHT22;7262;48.764;9.166;2022-08-01T10:24:15;29.80;99.90
14357;DHT22;7262;48.764;9.166;2022-08-01T10:26:46;30.60;99.90
14357;DHT22;7262;48.764;9.166;2022-08-01T10:29:14;31.40;99.90
14357;DHT22;7262;48.764;9.166;2022-08-01T10:31:43;31.10;99.90
14357;DHT22;7262;48.764;9.166;2022-08-01T10:34:09;31.00;99.90
14357;DHT22;7262;48.764;9.166;2022-08-01T10:36:38;31.60;99.90
14357;DHT22;7262;48.764;9.166;2022-08-01T10:39:09;32.10;99.90
14357;DHT22;7262;48.764;9.166;2022-08-01T10:41:36;31.80;99.90
14357;DHT22;7262;48.764;9.166;2022-08-01T10:44:06;32.60;99.90
14357;DHT22;7262;48.764;9.166;2022-08-01T10:46:33;33.10;99.90
14357;DHT22;7262;48.764;9.166;2022-08-01T10:49:02;32.00;99.90
14357;DHT22;7262;48.764;9.166;2022-08-01T10:51:31;30.90;99.90
14357;DHT22;7262;48.764;9.166;2022-08-01T10:54:03;30.10;99.90
14357;DHT22;7262;48.764;9.166;2022-08-01T10:56:38;29.10;99.90
14357;DHT22;7262;48.764;9.166;2022-08-01T10:59:05;28.20;99.90
14357;DHT22;7262;48.764;9.166;2022-08-01T11:01:32;27.70;99.90
14357;DHT22;7262;48.764;9.166;2022-08-01T11:06:25;27.80;99.90
14357;DHT22;7262;48.764;9.166;2022-08-01T11:08:53;28.10;99.90
14357;DHT22;7262;48.764;9.166;2022-08-01T11:11:20;28.20;99.90
14357;DHT22;7262;48.764;9.166;2022-08-01T11:14:04;29.10;99.90
14357;DHT22;7262;48.764;9.166;2022-08-01T11:16:35;30.40;99.90
14357;DHT22;7262;48.764;9.166;2022-08-01T11:19:03;31.70;99.90
14357;DHT22;7262;48.764;9.166;2022-08-01T11:24:21;30.60;99.90
14357;DHT22;7262;48.764;9.166;2022-08-01T11:27:15;29.50;99.90
14357;DHT22;7262;48.764;9.166;2022-08-01T11:29:42;29.10;99.90
14357;DHT22;7262;48.764;9.166;2022-08-01T11:32:23;28.80;99.90
14357;DHT22;7262;48.764;9.166;2022-08-01T11:34:53;28.80;99.90
14357;DHT22;7262;48.764;9.166;2022-08-01T11:37:23;29.40;99.90
14357;DHT22;7262;48.764;9.166;2022-08-01T11:42:35;29.50;99.90
14357;DHT22;7262;48.764;9.166;2022-08-01T11:45:02;28.90;99.90
14357;DHT22;7262;48.764;9.166;2022-08-01T11:47:46;28.90;99.90
14357;DHT22;7262;48.764;9.166;2022-08-01T11:50:31;29.20;99.90
14357;DHT22;7262;48.764;9.166;2022-08-01T11:52:59;29.30;99.90
14357;DHT22;7262;48.764;9.166;2022-08-01T11:55:26;29.30;99.90
14357;DHT22;7262;48.764;9.166;2022-08-01T11:57:59;29.30;99.90
14357;DHT22;7262;48.764;9.166;2022-08-01T12:00:27;29.70;99.90
14357;DHT22;7262;48.764;9.166;2022-08-01T12:02:57;29.60;99.90
14357;DHT22;7262;48.764;9.166;2022-08-01T12:05:24;29.10;99.90
14357;DHT22;7262;48.764;9.166;2022-08-01T12:07:52;28.90;99.90
14357;DHT22;7262;48.764;9.166;2022-08-01T12:10:21;28.80;99.90
14357;DHT22;7262;48.764;9.166;2022-08-01T12:12:48;28.30;99.90
14357;DHT22;7262;48.764;9.166;2022-08-01T12:15:17;28.30;99.90
14357;DHT22;7262;48.764;9.166;2022-08-01T12:17:47;29.20;99.90
14357;DHT22;7262;48.764;9.166;2022-08-01T12:20:15;30.80;99.90
14357;DHT22;7262;48.764;9.166;2022-08-01T12:22:42;32.00;99.90
14357;DHT22;7262;48.764;9.166;2022-08-01T12:25:10;32.00;99.90
14357;DHT22;7262;48.764;9.166;2022-08-01T12:27:37;31.60;99.90
14357;DHT22;7262;48.764;9.166;2022-08-01T12:30:05;30.50;99.90
14357;DHT22;7262;48.764;9.166;2022-08-01T12:32:36;29.70;99.90
14357;DHT22;7262;48.764;9.166;2022-08-01T12:35:04;28.90;99.90
14357;DHT22;7262;48.764;9.166;2022-08-01T12:37:32;28.70;99.90
14357;DHT22;7262;48.764;9.166;2022-08-01T12:40:00;28.60;99.90
14357;DHT22;7262;48.764;9.166;2022-08-01T12:42:28;28.60;99.90
14357;DHT22;7262;48.764;9.166;2022-08-01T12:44:55;29.20;99.90
14357;DHT22;7262;48.764;9.166;2022-08-01T12:47:22;30.10;99.90
14357;DHT22;7262;48.764;9.166;2022-08-01T12:49:51;31.30;99.90
14357;DHT22;7262;48.764;9.166;2022-08-01T12:52:18;31.70;99.90
14357;DHT22;7262;48.764;9.166;2022-08-01T12:55:03;30.80;99.90
14357;DHT22;7262;48.764;9.166;2022-08-01T12:57:30;30.30;99.90
14357;DHT22;7262;48.764;9.166;2022-08-01T13:00:10;29.80;99.90
14357;DHT22;7262;48.764;9.166;2022-08-01T13:02:39;29.80;99.90
14357;DHT22;7262;48.764;9.166;2022-08-01T13:05:08;29.70;99.90
14357;DHT22;7262;48.764;9.166;2022-08-01T13:07:37;30.00;99.90
14357;DHT22;7262;48.764;9.166;2022-08-01T13:10:05;31.40;99.90
14357;DHT22;7262;48.764;9.166;2022-08-01T13:12:31;32.50;99.90
14357;DHT22;7262;48.764;9.166;2022-08-01T13:15:14;32.10;99.90
14357;DHT22;7262;48.764;9.166;2022-08-01T13:17:41;31.10;99.90
14357;DHT22;7262;48.764;9.166;2022-08-01T13:20:22;30.50;99.90
14357;DHT22;7262;48.764;9.166;2022-08-01T13:22:49;30.20;99.90
14357;DHT22;7262;48.764;9.166;2022-08-01T13:25:17;29.50;99.90
14357;DHT22;7262;48.764;9.166;2022-08-01T13:27:44;29.70;99.90
14357;DHT22;7262;48.764;9.166;2022-08-01T13:30:11;30.30;99.90
14357;DHT22;7262;48.764;9.166;2022-08-01T13:32:38;30.60;99.90
14357;DHT22;7262;48.764;9.166;2022-08-01T13:35:06;31.60;99.90
14357;DHT22;7262;48.764;9.166;2022-08-01T13:37:35;32.20;99.90
14357;DHT22;7262;48.764;9.166;2022-08-01T13:40:02;32.40;99.90
14357;DHT22;7262;48.764;9.166;2022-08-01T13:42:29;32.10;99.90
14357;DHT22;7262;48.764;9.166;2022-08-01T13:44:55;32.60;99.90
14357;DHT22;7262;48.764;9.166;2022-08-01T13:47:22;33.00;99.90
14357;DHT22;7262;48.764;9.166;2022-08-01T13:49:49;33.30;99.90
14357;DHT22;7262;48.764;9.166;2022-08-01T13:52:15;34.00;99.90
14357;DHT22;7262;48.764;9.166;2022-08-01T13:54:45;33.60;99.90
14357;DHT22;7262;48.764;9.166;2022-08-01T13:57:12;32.60;99.90
14357;DHT22;7262;48.764;9.166;2022-08-01T13:59:39;31.80;99.90
14357;DHT22;7262;48.764;9.166;2022-08-01T14:02:06;31.50;99.90
14357;DHT22;7262;48.764;9.166;2022-08-01T14:04:33;31.80;99.90
14357;DHT22;7262;48.764;9.166;2022-08-01T14:06:59;32.60;99.90
14357;DHT22;7262;48.764;9.166;2022-08-01T14:09:26;33.40;99.90
14357;DHT22;7262;48.764;9.166;2022-08-01T14:11:54;33.60;99.90
14357;DHT22;7262;48.764;9.166;2022-08-01T14:14:21;33.50;99.90
14357;DHT22;7262;48.764;9.166;2022-08-01T14:16:48;33.00;99.90
14357;DHT22;7262;48.764;9.166;2022-08-01T14:19:15;32.40;99.90
14357;DHT22;7262;48.764;9.166;2022-08-01T14:21:43;32.40;99.90
14357;DHT22;7262;48.764;9.166;2022-08-01T14:24:10;32.00;99.90
14357;DHT22;7262;48.764;9.166;2022-08-01T14:26:37;31.80;99.90
14357;DHT22;7262;48.764;9.166;2022-08-01T14:29:05;31.60;99.90
14357;DHT22;7262;48.764;9.166;2022-08-01T14:31:34;30.90;99.90
14357;DHT22;7262;48.764;9.166;2022-08-01T14:34:01;30.30;99.90
14357;DHT22;7262;48.764;9.166;2022-08-01T14:36:28;29.80;99.90
14357;DHT22;7262;48.764;9.166;2022-08-01T14:38:55;30.10;99.90
14357;DHT22;7262;48.764;9.166;2022-08-01T14:41:21;31.20;99.90
14357;DHT22;7262;48.764;9.166;2022-08-01T14:43:48;32.00;99.90
14357;DHT22;7262;48.764;9.166;2022-08-01T14:46:16;31.50;99.90
14357;DHT22;7262;48.764;9.166;2022-08-01T14:48:43;31.10;99.90
14357;DHT22;7262;48.764;9.166;2022-08-01T14:51:09;31.30;99.90
14357;DHT22;7262;48.764;9.166;2022-08-01T14:53:36;30.80;99.90
14357;DHT22;7262;48.764;9.166;2022-08-01T14:56:04;29.80;99.90
14357;DHT22;7262;48.764;9.166;2022-08-01T14:58:31;29.90;99.90
14357;DHT22;7262;48.764;9.166;2022-08-01T15:00:58;30.30;99.90
14357;DHT22;7262;48.764;9.166;2022-08-01T15:03:27;30.40;99.90
14357;DHT22;7262;48.764;9.166;2022-08-01T15:05:53;30.20;99.90
14357;DHT22;7262;48.764;9.166;2022-08-01T15:08:21;30.40;99.90
14357;DHT22;7262;48.764;9.166;2022-08-01T15:10:48;30.60;99.90
14357;DHT22;7262;48.764;9.166;2022-08-01T15:13:15;30.80;99.90
14357;DHT22;7262;48.764;9.166;2022-08-01T15:15:42;30.70;99.90
14357;DHT22;7262;48.764;9.166;2022-08-01T15:18:09;30.50;99.90
14357;DHT22;7262;48.764;9.166;2022-08-01T15:20:38;29.90;99.90
14357;DHT22;7262;48.764;9.166;2022-08-01T15:23:04;30.00;99.90
14357;DHT22;7262;48.764;9.166;2022-08-01T15:25:31;30.00;99.90
14357;DHT22;7262;48.764;9.166;2022-08-01T15:27:58;29.80;99.90
14357;DHT22;7262;48.764;9.166;2022-08-01T15:30:25;29.50;99.90
14357;DHT22;7262;48.764;9.166;2022-08-01T15:32:51;29.40;99.90
14357;DHT22;7262;48.764;9.166;2022-08-01T15:35:18;29.60;99.90
14357;DHT22;7262;48.764;9.166;2022-08-01T15:37:48;30.00;99.90
14357;DHT22;7262;48.764;9.166;2022-08-01T15:40:15;30.10;99.90
14357;DHT22;7262;48.764;9.166;2022-08-01T15:42:42;30.10;99.90
14357;DHT22;7262;48.764;9.166;2022-08-01T15:45:09;30.00;99.90
14357;DHT22;7262;48.764;9.166;2022-08-01T15:47:35;30.00;99.90
14357;DHT22;7262;48.764;9.166;2022-08-01T15:50:03;30.10;99.90
14357;DHT22;7262;48.764;9.166;2022-08-01T15:52:31;30.10;99.90
14357;DHT22;7262;48.764;9.166;2022-08-01T15:54:59;29.70;99.90
14357;DHT22;7262;48.764;9.166;2022-08-01T15:57:26;29.20;99.90
14357;DHT22;7262;48.764;9.166;2022-08-01T15:59:52;29.10;99.90
14357;DHT22;7262;48.764;9.166;2022-08-01T16:02:19;29.20;99.90
14357;DHT22;7262;48.764;9.166;2022-08-01T16:04:46;29.30;99.90